sensor_id;sensor_type;location;lat;lon;timestamp;temperature;humidity
11089;DHT22;5598;48.648;8.908;2022-12-18T00:00:45;-12.80;99.90
11089;DHT22;5598;48.648;8.908;2022-12-18T00:03:14;-12.80;99.90
11089;DHT22;5598;48.648;8.908;2022-12-18T00:05:46;-12.90;99.90
11089;DHT22;5598;48.648;8.908;2022-12-18T00:08:14;-13.10;99.90
11089;DHT22;5598;48.648;8.908;2022-12-18T00:10:40;-13.20;99.90
11089;DHT22;5598;48.648;8.908;2022-12-18T00:13:07;-13.20;99.90
11089;DHT22;5598;48.648;8.908;2022-12-18T00:15:34;-13.10;99.90
11089;DHT22;5598;48.648;8.908;2022-12-18T00:18:02;-13.10;99.90
11089;DHT22;5598;48.648;8.908;2022-12-18T00:20:29;-13.20;99.90
11089;DHT22;5598;48.648;8.908;2022-12-18T00:22:56;-13.20;99.90
11089;DHT22;5598;48.648;8.908;2022-12-18T00:25:23;-13.30;99.90
11089;DHT22;5598;48.648;8.908;2022-12-18T00:27:50;-13.20;99.90
11089;DHT22;5598;48.648;8.908;2022-12-18T00:30:17;-13.30;99.90
11089;DHT22;5598;48.648;8.908;2022-12-18T00:32:46;-13.40;99.90
11089;DHT22;5598;48.648;8.908;2022-12-18T00:35:15;-13.50;99.90
11089;DHT22;5598;48.648;8.908;2022-12-18T00:37:41;-13.30;99.90
11089;DHT22;5598;48.648;8.908;2022-12-18T00:40:09;-13.30;99.90
11089;DHT22;5598;48.648;8.908;2022-12-18T00:42:36;-13.30;99.90
11089;DHT22;5598;48.648;8.908;2022-12-18T00:45:21;-13.30;99.90
11089;DHT22;5598;48.648;8.908;2022-12-18T00:47:51;-13.30;99.90
11089;DHT22;5598;48.648;8.908;2022-12-18T00:50:20;-13.30;99.90
11089;DHT22;5598;48.648;8.908;2022-12-18T00:52:47;-13.30;99.90
11089;DHT22;5598;48.648;8.908;2022-12-18T00:55:14;-13.40;99.90
11089;DHT22;5598;48.648;8.908;2022-12-18T00:57:41;-13.30;99.90
11089;DHT22;5598;48.648;8.908;2022-12-18T01:00:11;-13.20;99.90
11089;DHT22;5598;48.648;8.908;2022-12-18T01:02:39;-13.20;99.90
11089;DHT22;5598;48.648;8.908;2022-12-18T01:05:07;-13.20;99.90
11089;DHT22;5598;48.648;8.908;2022-12-18T01:07:35;-13.20;99.90
11089;DHT22;5598;48.648;8.908;2022-12-18T01:10:03;-13.20;99.90
11089;DHT22;5598;48.648;8.908;2022-12-18T01:12:30;-13.10;99.90
11089;DHT22;5598;48.648;8.908;2022-12-18T01:14:57;-13.30;99.90
11089;DHT22;5598;48.648;8.908;2022-12-18T01:17:24;-13.50;99.90
11089;DHT22;5598;48.648;8.908;2022-12-18T01:19:51;-13.60;99.90
11089;DHT22;5598;48.648;8.908;2022-12-18T01:22:18;-13.60;99.90
11089;DHT22;5598;48.648;8.908;2022-12-18T01:24:46;-13.70;99.90
11089;DHT22;5598;48.648;8.908;2022-12-18T01:27:13;-13.70;99.90
11089;DHT22;5598;48.648;8.908;2022-12-18T01:29:40;-13.80;99.90
11089;DHT22;5598;48.648;8.908;2022-12-18T01:32:06;-13.80;99.90
11089;DHT22;5598;48.648;8.908;2022-12-18T01:34:35;-13.70;99.90
11089;DHT22;5598;48.648;8.908;2022-12-18T01:37:02;-13.80;99.90
11089;DHT22;5598;48.648;8.908;2022-12-18T01:39:29;-13.70;99.90
11089;DHT22;5598;48.648;8.908;2022-12-18T01:41:58;-13.60;99.90
11089;DHT22;5598;48.648;8.908;2022-12-18T01:44:57;-13.50;99.90
11089;DHT22;5598;48.648;8.908;2022-12-18T01:47:26;-13.40;99.90
11089;DHT22;5598;48.648;8.908;2022-12-18T01:49:54;-13.30;99.90
11089;DHT22;5598;48.648;8.908;2022-12-18T01:52:22;-13.30;99.90
11089;DHT22;5598;48.648;8.908;2022-12-18T01:54:52;-13.30;99.90
11089;DHT22;5598;48.648;8.908;2022-12-18T01:57:22;-13.10;99.90
11089;DHT22;5598;48.648;8.908;2022-12-18T01:59:52;-12.80;99.90
11089;DHT22;5598;48.648;8.908;2022-12-18T02:02:20;-12.70;99.90
11089;DHT22;5598;48.648;8.908;2022-12-18T02:04:47;-12.50;99.90
11089;DHT22;5598;48.648;8.908;2022-12-18T02:07:28;-12.60;99.90
11089;DHT22;5598;48.648;8.908;2022-12-18T02:10:02;-12.60;99.90
11089;DHT22;5598;48.648;8.908;2022-12-18T02:12:38;-12.70;99.90
11089;DHT22;5598;48.648;8.908;2022-12-18T02:15:13;-12.70;99.90
11089;DHT22;5598;48.648;8.908;2022-12-18T02:17:45;-12.70;99.90
11089;DHT22;5598;48.648;8.908;2022-12-18T02:20:18;-12.70;99.90
11089;DHT22;5598;48.648;8.908;2022-12-18T02:22:57;-12.60;99.90
11089;DHT22;5598;48.648;8.908;2022-12-18T02:25:40;-12.60;99.90
11089;DHT22;5598;48.648;8.908;2022-12-18T02:28:12;-12.50;99.90
11089;DHT22;5598;48.648;8.908;2022-12-18T02:30:41;-12.40;99.90
11089;DHT22;5598;48.648;8.908;2022-12-18T02:33:09;-12.30;99.90
11089;DHT22;5598;48.648;8.908;2022-12-18T02:35:39;-12.30;99.90
11089;DHT22;5598;48.648;8.908;2022-12-18T02:38:07;-12.30;99.90
11089;DHT22;5598;48.648;8.908;2022-12-18T02:40:35;-12.20;99.90
11089;DHT22;5598;48.648;8.908;2022-12-18T02:43:08;-12.10;99.90
11089;DHT22;5598;48.648;8.908;2022-12-18T02:45:35;-12.00;99.90
11089;DHT22;5598;48.648;8.908;2022-12-18T02:48:03;-12.00;99.90
11089;DHT22;5598;48.648;8.908;2022-12-18T02:50:36;-12.00;99.90
11089;DHT22;5598;48.648;8.908;2022-12-18T02:53:10;-11.80;99.90
11089;DHT22;5598;48.648;8.908;2022-12-18T02:55:52;-11.70;99.90
11089;DHT22;5598;48.648;8.908;2022-12-18T02:58:28;-11.60;99.90
11089;DHT22;5598;48.648;8.908;2022-12-18T03:01:01;-11.40;99.90
11089;DHT22;5598;48.648;8.908;2022-12-18T03:03:31;-11.30;99.90
11089;DHT22;5598;48.648;8.908;2022-12-18T03:06:05;-11.20;99.90
11089;DHT22;5598;48.648;8.908;2022-12-18T03:08:35;-11.30;99.90
11089;DHT22;5598;48.648;8.908;2022-12-18T03:11:05;-11.30;99.90
11089;DHT22;5598;48.648;8.908;2022-12-18T03:13:36;-11.20;99.90
11089;DHT22;5598;48.648;8.908;2022-12-18T03:16:06;-11.20;99.90
11089;DHT22;5598;48.648;8.908;2022-12-18T03:18:36;-11.10;99.90
11089;DHT22;5598;48.648;8.908;2022-12-18T03:21:06;-11.10;99.90
11089;DHT22;5598;48.648;8.908;2022-12-18T03:23:36;-11.00;99.90
11089;DHT22;5598;48.648;8.908;2022-12-18T03:26:06;-10.90;99.90
11089;DHT22;5598;48.648;8.908;2022-12-18T03:28:39;-10.80;99.90
11089;DHT22;5598;48.648;8.908;2022-12-18T03:31:10;-10.70;99.90
11089;DHT22;5598;48.648;8.908;2022-12-18T03:33:41;-10.60;99.90
11089;DHT22;5598;48.648;8.908;2022-12-18T03:36:09;-10.50;99.90
11089;DHT22;5598;48.648;8.908;2022-12-18T03:38:36;-10.50;99.90
11089;DHT22;5598;48.648;8.908;2022-12-18T03:41:06;-10.40;99.90
11089;DHT22;5598;48.648;8.908;2022-12-18T03:43:42;-10.30;99.90
11089;DHT22;5598;48.648;8.908;2022-12-18T03:46:17;-10.30;99.90
11089;DHT22;5598;48.648;8.908;2022-12-18T03:48:48;-10.30;99.90
11089;DHT22;5598;48.648;8.908;2022-12-18T03:51:24;-10.30;99.90
11089;DHT22;5598;48.648;8.908;2022-12-18T03:53:56;-10.40;99.90
11089;DHT22;5598;48.648;8.908;2022-12-18T03:56:26;-10.30;99.90
11089;DHT22;5598;48.648;8.908;2022-12-18T03:58:56;-10.20;99.90
11089;DHT22;5598;48.648;8.908;2022-12-18T04:01:28;-10.20;99.90
11089;DHT22;5598;48.648;8.908;2022-12-18T04:03:56;-10.10;99.90
11089;DHT22;5598;48.648;8.908;2022-12-18T04:06:25;-10.10;99.90
11089;DHT22;5598;48.648;8.908;2022-12-18T04:08:52;-10.00;99.90
11089;DHT22;5598;48.648;8.908;2022-12-18T04:11:19;-10.00;99.90
11089;DHT22;5598;48.648;8.908;2022-12-18T04:13:46;-9.90;99.90
11089;DHT22;5598;48.648;8.908;2022-12-18T04:16:14;-9.80;99.90
11089;DHT22;5598;48.648;8.908;2022-12-18T04:18:41;-9.70;99.90
11089;DHT22;5598;48.648;8.908;2022-12-18T04:21:08;-9.70;99.90
11089;DHT22;5598;48.648;8.908;2022-12-18T04:23:35;-9.60;99.90
11089;DHT22;5598;48.648;8.908;2022-12-18T04:26:01;-9.60;99.90
11089;DHT22;5598;48.648;8.908;2022-12-18T04:28:28;-9.60;99.90
11089;DHT22;5598;48.648;8.908;2022-12-18T04:30:55;-9.60;99.90
11089;DHT22;5598;48.648;8.908;2022-12-18T04:33:23;-9.50;99.90
11089;DHT22;5598;48.648;8.908;2022-12-18T04:35:50;-9.50;99.90
11089;DHT22;5598;48.648;8.908;2022-12-18T04:38:17;-9.30;99.90
11089;DHT22;5598;48.648;8.908;2022-12-18T04:40:43;-9.20;99.90
11089;DHT22;5598;48.648;8.908;2022-12-18T04:43:10;-9.20;99.90
11089;DHT22;5598;48.648;8.908;2022-12-18T04:45:37;-9.10;99.90
11089;DHT22;5598;48.648;8.908;2022-12-18T04:48:04;-9.10;99.90
11089;DHT22;5598;48.648;8.908;2022-12-18T04:50:32;-9.00;99.90
11089;DHT22;5598;48.648;8.908;2022-12-18T04:52:59;-9.00;99.90
11089;DHT22;5598;48.648;8.908;2022-12-18T04:55:26;-8.90;99.90
11089;DHT22;5598;48.648;8.908;2022-12-18T04:57:53;-8.90;99.90
11089;DHT22;5598;48.648;8.908;2022-12-18T05:00:21;-8.80;99.90
11089;DHT22;5598;48.648;8.908;2022-12-18T05:02:48;-8.80;99.90
11089;DHT22;5598;48.648;8.908;2022-12-18T05:05:14;-8.80;99.90
11089;DHT22;5598;48.648;8.908;2022-12-18T05:07:43;-8.70;99.90
11089;DHT22;5598;48.648;8.908;2022-12-18T05:10:09;-8.70;99.90
11089;DHT22;5598;48.648;8.908;2022-12-18T05:12:36;-8.60;99.90
11089;DHT22;5598;48.648;8.908;2022-12-18T05:15:23;-8.60;99.90
11089;DHT22;5598;48.648;8.908;2022-12-18T05:17:50;-8.60;99.90
11089;DHT22;5598;48.648;8.908;2022-12-18T05:20:17;-8.60;99.90
11089;DHT22;5598;48.648;8.908;2022-12-18T05:22:46;-8.50;99.90
11089;DHT22;5598;48.648;8.908;2022-12-18T05:25:12;-8.50;99.90
11089;DHT22;5598;48.648;8.908;2022-12-18T05:27:39;-8.70;99.90
11089;DHT22;5598;48.648;8.908;2022-12-18T05:30:07;-8.70;99.90
11089;DHT22;5598;48.648;8.908;2022-12-18T05:32:34;-8.80;99.90
11089;DHT22;5598;48.648;8.908;2022-12-18T05:35:01;-8.90;99.90
11089;DHT22;5598;48.648;8.908;2022-12-18T05:37:28;-9.10;99.90
11089;DHT22;5598;48.648;8.908;2022-12-18T05:39:56;-9.30;99.90
11089;DHT22;5598;48.648;8.908;2022-12-18T05:42:23;-9.40;99.90
11089;DHT22;5598;48.648;8.908;2022-12-18T05:44:50;-9.50;99.90
11089;DHT22;5598;48.648;8.908;2022-12-18T05:47:16;-9.70;99.90
11089;DHT22;5598;48.648;8.908;2022-12-18T05:49:43;-9.80;99.90
11089;DHT22;5598;48.648;8.908;2022-12-18T05:52:10;-9.80;99.90
11089;DHT22;5598;48.648;8.908;2022-12-18T05:54:37;-9.90;99.90
11089;DHT22;5598;48.648;8.908;2022-12-18T05:57:05;-9.90;99.90
11089;DHT22;5598;48.648;8.908;2022-12-18T05:59:32;-9.90;99.90
11089;DHT22;5598;48.648;8.908;2022-12-18T06:01:59;-10.00;99.90
11089;DHT22;5598;48.648;8.908;2022-12-18T06:04:26;-10.10;99.90
11089;DHT22;5598;48.648;8.908;2022-12-18T06:06:56;-10.20;99.90
11089;DHT22;5598;48.648;8.908;2022-12-18T06:09:23;-10.30;99.90
11089;DHT22;5598;48.648;8.908;2022-12-18T06:11:51;-10.20;99.90
11089;DHT22;5598;48.648;8.908;2022-12-18T06:14:19;-10.20;99.90
11089;DHT22;5598;48.648;8.908;2022-12-18T06:16:46;-10.40;99.90
11089;DHT22;5598;48.648;8.908;2022-12-18T06:19:15;-10.40;99.90
11089;DHT22;5598;48.648;8.908;2022-12-18T06:21:42;-10.50;99.90
11089;DHT22;5598;48.648;8.908;2022-12-18T06:24:09;-10.60;99.90
11089;DHT22;5598;48.648;8.908;2022-12-18T06:26:37;-10.70;99.90
11089;DHT22;5598;48.648;8.908;2022-12-18T06:29:04;-10.70;99.90
11089;DHT22;5598;48.648;8.908;2022-12-18T06:31:32;-10.70;99.90
11089;DHT22;5598;48.648;8.908;2022-12-18T06:33:59;-10.80;99.90
11089;DHT22;5598;48.648;8.908;2022-12-18T06:36:25;-10.80;99.90
11089;DHT22;5598;48.648;8.908;2022-12-18T06:38:55;-10.80;99.90
11089;DHT22;5598;48.648;8.908;2022-12-18T06:41:22;-10.90;99.90
11089;DHT22;5598;48.648;8.908;2022-12-18T06:43:49;-10.90;99.90
11089;DHT22;5598;48.648;8.908;2022-12-18T06:46:16;-10.70;99.90
11089;DHT22;5598;48.648;8.908;2022-12-18T06:48:46;-10.80;99.90
11089;DHT22;5598;48.648;8.908;2022-12-18T06:51:16;-10.90;99.90
11089;DHT22;5598;48.648;8.908;2022-12-18T06:53:43;-10.90;99.90
11089;DHT22;5598;48.648;8.908;2022-12-18T06:56:09;-11.10;99.90
11089;DHT22;5598;48.648;8.908;2022-12-18T06:58:36;-11.20;99.90
11089;DHT22;5598;48.648;8.908;2022-12-18T07:01:04;-11.20;99.90
11089;DHT22;5598;48.648;8.908;2022-12-18T07:03:32;-11.20;99.90
11089;DHT22;5598;48.648;8.908;2022-12-18T07:06:00;-11.20;99.90
11089;DHT22;5598;48.648;8.908;2022-12-18T07:08:28;-11.30;99.90
11089;DHT22;5598;48.648;8.908;2022-12-18T07:10:55;-11.30;99.90
11089;DHT22;5598;48.648;8.908;2022-12-18T07:13:22;-11.20;99.90
11089;DHT22;5598;48.648;8.908;2022-12-18T07:15:49;-11.20;99.90
11089;DHT22;5598;48.648;8.908;2022-12-18T07:18:16;-11.20;99.90
11089;DHT22;5598;48.648;8.908;2022-12-18T07:20:42;-11.10;99.90
11089;DHT22;5598;48.648;8.908;2022-12-18T07:23:10;-11.00;99.90
11089;DHT22;5598;48.648;8.908;2022-12-18T07:25:37;-10.90;99.90
11089;DHT22;5598;48.648;8.908;2022-12-18T07:28:05;-10.90;99.90
11089;DHT22;5598;48.648;8.908;2022-12-18T07:30:31;-11.00;99.90
11089;DHT22;5598;48.648;8.908;2022-12-18T07:32:58;-11.10;99.90
11089;DHT22;5598;48.648;8.908;2022-12-18T07:35:25;-11.10;99.90
11089;DHT22;5598;48.648;8.908;2022-12-18T07:37:52;-11.00;99.90
11089;DHT22;5598;48.648;8.908;2022-12-18T07:40:20;-10.80;99.90
11089;DHT22;5598;48.648;8.908;2022-12-18T07:42:47;-10.60;99.90
11089;DHT22;5598;48.648;8.908;2022-12-18T07:45:14;-10.50;99.90
11089;DHT22;5598;48.648;8.908;2022-12-18T07:47:40;-10.40;99.90
11089;DHT22;5598;48.648;8.908;2022-12-18T07:50:08;-10.20;99.90
11089;DHT22;5598;48.648;8.908;2022-12-18T07:52:35;-10.00;99.90
11089;DHT22;5598;48.648;8.908;2022-12-18T07:55:02;-10.20;99.90
11089;DHT22;5598;48.648;8.908;2022-12-18T07:57:30;-10.20;99.90
11089;DHT22;5598;48.648;8.908;2022-12-18T07:59:57;-10.20;99.90
11089;DHT22;5598;48.648;8.908;2022-12-18T08:02:23;-10.10;99.90
11089;DHT22;5598;48.648;8.908;2022-12-18T08:04:50;-9.90;99.90
11089;DHT22;5598;48.648;8.908;2022-12-18T08:07:17;-9.80;99.90
11089;DHT22;5598;48.648;8.908;2022-12-18T08:09:44;-9.90;99.90
11089;DHT22;5598;48.648;8.908;2022-12-18T08:12:11;-9.90;99.90
11089;DHT22;5598;48.648;8.908;2022-12-18T08:14:39;-10.00;99.90
11089;DHT22;5598;48.648;8.908;2022-12-18T08:17:05;-9.70;99.90
11089;DHT22;5598;48.648;8.908;2022-12-18T08:19:32;-9.30;99.90
11089;DHT22;5598;48.648;8.908;2022-12-18T08:21:59;-8.70;99.90
11089;DHT22;5598;48.648;8.908;2022-12-18T08:24:26;-8.80;99.90
11089;DHT22;5598;48.648;8.908;2022-12-18T08:26:53;-8.20;99.90
11089;DHT22;5598;48.648;8.908;2022-12-18T08:29:20;-7.90;99.90
11089;DHT22;5598;48.648;8.908;2022-12-18T08:31:48;-7.70;99.90
11089;DHT22;5598;48.648;8.908;2022-12-18T08:34:15;-8.20;99.90
11089;DHT22;5598;48.648;8.908;2022-12-18T08:36:41;-8.10;99.90
11089;DHT22;5598;48.648;8.908;2022-12-18T08:39:08;-7.70;99.90
11089;DHT22;5598;48.648;8.908;2022-12-18T08:41:35;-7.50;99.90
11089;DHT22;5598;48.648;8.908;2022-12-18T08:44:02;-7.40;99.90
11089;DHT22;5598;48.648;8.908;2022-12-18T08:46:48;-7.50;99.90
11089;DHT22;5598;48.648;8.908;2022-12-18T08:49:14;-7.40;99.90
11089;DHT22;5598;48.648;8.908;2022-12-18T08:51:41;-7.30;99.90
11089;DHT22;5598;48.648;8.908;2022-12-18T08:54:11;-7.20;99.90
11089;DHT22;5598;48.648;8.908;2022-12-18T08:56:38;-7.30;99.90
11089;DHT22;5598;48.648;8.908;2022-12-18T08:59:05;-7.10;99.90
11089;DHT22;5598;48.648;8.908;2022-12-18T09:01:31;-6.70;99.90
11089;DHT22;5598;48.648;8.908;2022-12-18T09:04:00;-6.20;99.90
11089;DHT22;5598;48.648;8.908;2022-12-18T09:06:26;-5.90;99.90
11089;DHT22;5598;48.648;8.908;2022-12-18T09:08:53;-5.50;99.90
11089;DHT22;5598;48.648;8.908;2022-12-18T09:11:22;-5.20;99.90
11089;DHT22;5598;48.648;8.908;2022-12-18T09:13:49;-5.00;99.90
11089;DHT22;5598;48.648;8.908;2022-12-18T09:16:16;-4.70;99.90
11089;DHT22;5598;48.648;8.908;2022-12-18T09:18:43;-4.60;99.90
11089;DHT22;5598;48.648;8.908;2022-12-18T09:21:14;-4.00;99.90
11089;DHT22;5598;48.648;8.908;2022-12-18T09:23:42;-3.80;99.90
11089;DHT22;5598;48.648;8.908;2022-12-18T09:26:09;-3.60;99.90
11089;DHT22;5598;48.648;8.908;2022-12-18T09:28:36;-4.30;99.90
11089;DHT22;5598;48.648;8.908;2022-12-18T09:31:07;-3.50;99.90
11089;DHT22;5598;48.648;8.908;2022-12-18T09:33:34;-3.90;99.90
11089;DHT22;5598;48.648;8.908;2022-12-18T09:36:03;-3.00;99.90
11089;DHT22;5598;48.648;8.908;2022-12-18T09:38:32;-3.20;99.90
11089;DHT22;5598;48.648;8.908;2022-12-18T09:41:04;-3.40;99.90
11089;DHT22;5598;48.648;8.908;2022-12-18T09:43:35;-3.10;99.90
11089;DHT22;5598;48.648;8.908;2022-12-18T09:46:06;-3.30;99.90
11089;DHT22;5598;48.648;8.908;2022-12-18T09:48:35;-3.00;99.90
11089;DHT22;5598;48.648;8.908;2022-12-18T09:51:09;-2.40;99.90
11089;DHT22;5598;48.648;8.908;2022-12-18T09:53:39;-3.00;99.90
11089;DHT22;5598;48.648;8.908;2022-12-18T09:56:13;-3.00;99.90
11089;DHT22;5598;48.648;8.908;2022-12-18T09:58:47;-3.60;99.90
11089;DHT22;5598;48.648;8.908;2022-12-18T10:01:19;-4.00;99.90
11089;DHT22;5598;48.648;8.908;2022-12-18T10:03:48;-2.60;99.90
11089;DHT22;5598;48.648;8.908;2022-12-18T10:06:20;-2.30;99.90
11089;DHT22;5598;48.648;8.908;2022-12-18T10:08:54;-3.90;99.90
11089;DHT22;5598;48.648;8.908;2022-12-18T10:11:37;-2.90;99.90
11089;DHT22;5598;48.648;8.908;2022-12-18T10:14:11;-3.20;99.90
11089;DHT22;5598;48.648;8.908;2022-12-18T10:16:47;-3.20;99.90
11089;DHT22;5598;48.648;8.908;2022-12-18T10:19:32;-2.40;99.90
11089;DHT22;5598;48.648;8.908;2022-12-18T10:22:13;-1.40;99.90
11089;DHT22;5598;48.648;8.908;2022-12-18T10:24:48;-1.30;99.90
11089;DHT22;5598;48.648;8.908;2022-12-18T10:27:23;-1.20;99.90
11089;DHT22;5598;48.648;8.908;2022-12-18T10:29:50;-1.20;99.90
11089;DHT22;5598;48.648;8.908;2022-12-18T10:32:20;-0.80;99.90
11089;DHT22;5598;48.648;8.908;2022-12-18T10:34:47;-0.60;99.90
11089;DHT22;5598;48.648;8.908;2022-12-18T10:37:17;-0.10;99.90
11089;DHT22;5598;48.648;8.908;2022-12-18T10:39:46;-0.70;99.80
11089;DHT22;5598;48.648;8.908;2022-12-18T10:42:17;-1.40;99.90
11089;DHT22;5598;48.648;8.908;2022-12-18T10:44:44;-1.60;99.90
11089;DHT22;5598;48.648;8.908;2022-12-18T10:47:14;-1.90;99.90
11089;DHT22;5598;48.648;8.908;2022-12-18T10:49:47;-1.00;99.90
11089;DHT22;5598;48.648;8.908;2022-12-18T10:52:18;-1.80;99.90
11089;DHT22;5598;48.648;8.908;2022-12-18T10:54:51;-3.20;99.90
11089;DHT22;5598;48.648;8.908;2022-12-18T10:57:33;-3.10;99.90
11089;DHT22;5598;48.648;8.908;2022-12-18T11:00:20;-1.70;99.90
11089;DHT22;5598;48.648;8.908;2022-12-18T11:02:47;-1.20;99.90
11089;DHT22;5598;48.648;8.908;2022-12-18T11:05:25;-0.40;99.90
11089;DHT22;5598;48.648;8.908;2022-12-18T11:07:52;-0.10;99.90
11089;DHT22;5598;48.648;8.908;2022-12-18T11:10:23;-0.90;99.90
11089;DHT22;5598;48.648;8.908;2022-12-18T11:12:52;-1.30;99.90
11089;DHT22;5598;48.648;8.908;2022-12-18T11:15:21;-1.80;99.90
11089;DHT22;5598;48.648;8.908;2022-12-18T11:17:51;-2.20;99.90
11089;DHT22;5598;48.648;8.908;2022-12-18T11:20:23;-0.90;99.90
11089;DHT22;5598;48.648;8.908;2022-12-18T11:22:57;-1.00;99.90
11089;DHT22;5598;48.648;8.908;2022-12-18T11:25:28;-0.50;99.90
11089;DHT22;5598;48.648;8.908;2022-12-18T11:27:58;-1.90;99.90
11089;DHT22;5598;48.648;8.908;2022-12-18T11:30:27;-2.20;99.90
11089;DHT22;5598;48.648;8.908;2022-12-18T11:32:58;-1.60;99.90
11089;DHT22;5598;48.648;8.908;2022-12-18T11:35:37;-2.40;99.90
11089;DHT22;5598;48.648;8.908;2022-12-18T11:38:10;-2.30;99.90
11089;DHT22;5598;48.648;8.908;2022-12-18T11:40:42;-2.40;99.90
11089;DHT22;5598;48.648;8.908;2022-12-18T11:43:14;-2.70;99.90
11089;DHT22;5598;48.648;8.908;2022-12-18T11:45:47;-1.00;99.90
11089;DHT22;5598;48.648;8.908;2022-12-18T11:48:18;-0.30;99.90
11089;DHT22;5598;48.648;8.908;2022-12-18T11:50:50;-0.30;99.90
11089;DHT22;5598;48.648;8.908;2022-12-18T11:53:18;0.40;99.90
11089;DHT22;5598;48.648;8.908;2022-12-18T11:56:01;0.90;99.90
11089;DHT22;5598;48.648;8.908;2022-12-18T11:58:43;1.30;99.90
11089;DHT22;5598;48.648;8.908;2022-12-18T12:01:18;1.40;99.90
11089;DHT22;5598;48.648;8.908;2022-12-18T12:04:03;1.20;99.90
11089;DHT22;5598;48.648;8.908;2022-12-18T12:06:40;0.80;99.90
11089;DHT22;5598;48.648;8.908;2022-12-18T12:09:16;0.50;99.90
11089;DHT22;5598;48.648;8.908;2022-12-18T12:11:53;0.80;99.90
11089;DHT22;5598;48.648;8.908;2022-12-18T12:14:34;0.80;99.90
11089;DHT22;5598;48.648;8.908;2022-12-18T12:17:09;0.80;99.90
11089;DHT22;5598;48.648;8.908;2022-12-18T12:19:44;0.80;99.90
11089;DHT22;5598;48.648;8.908;2022-12-18T12:22:18;0.60;99.90
11089;DHT22;5598;48.648;8.908;2022-12-18T12:24:57;0.50;99.90
11089;DHT22;5598;48.648;8.908;2022-12-18T12:27:33;0.50;99.90
11089;DHT22;5598;48.648;8.908;2022-12-18T12:30:05;0.30;99.90
11089;DHT22;5598;48.648;8.908;2022-12-18T12:32:45;0.30;99.90
11089;DHT22;5598;48.648;8.908;2022-12-18T12:35:27;0.50;99.90
11089;DHT22;5598;48.648;8.908;2022-12-18T12:38:05;0.50;99.90
11089;DHT22;5598;48.648;8.908;2022-12-18T12:40:35;0.10;99.90
11089;DHT22;5598;48.648;8.908;2022-12-18T12:43:14;0.00;99.90
11089;DHT22;5598;48.648;8.908;2022-12-18T12:45:46;0.20;99.90
11089;DHT22;5598;48.648;8.908;2022-12-18T12:48:20;0.30;99.90
11089;DHT22;5598;48.648;8.908;2022-12-18T12:50:50;0.50;99.90
11089;DHT22;5598;48.648;8.908;2022-12-18T12:53:23;0.20;99.90
11089;DHT22;5598;48.648;8.908;2022-12-18T12:55:53;0.10;99.90
11089;DHT22;5598;48.648;8.908;2022-12-18T12:58:29;0.00;99.90
11089;DHT22;5598;48.648;8.908;2022-12-18T13:01:08;0.10;99.90
11089;DHT22;5598;48.648;8.908;2022-12-18T13:03:44;0.20;99.90
11089;DHT22;5598;48.648;8.908;2022-12-18T13:06:19;0.30;99.90
11089;DHT22;5598;48.648;8.908;2022-12-18T13:08:54;0.30;99.90
11089;DHT22;5598;48.648;8.908;2022-12-18T13:11:34;0.30;99.90
11089;DHT22;5598;48.648;8.908;2022-12-18T13:14:23;0.10;99.90
11089;DHT22;5598;48.648;8.908;2022-12-18T13:16:50;-0.10;99.90
11089;DHT22;5598;48.648;8.908;2022-12-18T13:19:22;-0.30;99.90
11089;DHT22;5598;48.648;8.908;2022-12-18T13:21:53;-0.60;99.90
11089;DHT22;5598;48.648;8.908;2022-12-18T13:24:25;-0.70;99.90
11089;DHT22;5598;48.648;8.908;2022-12-18T13:26:53;-0.70;99.90
11089;DHT22;5598;48.648;8.908;2022-12-18T13:29:45;-0.70;99.90
11089;DHT22;5598;48.648;8.908;2022-12-18T13:32:23;-0.90;99.90
11089;DHT22;5598;48.648;8.908;2022-12-18T13:37:54;-1.10;99.90
11089;DHT22;5598;48.648;8.908;2022-12-18T13:43:33;-1.10;99.90
11089;DHT22;5598;48.648;8.908;2022-12-18T13:46:23;-0.90;99.90
11089;DHT22;5598;48.648;8.908;2022-12-18T13:48:59;-0.80;99.90
11089;DHT22;5598;48.648;8.908;2022-12-18T13:51:27;-0.70;99.90
11089;DHT22;5598;48.648;8.908;2022-12-18T13:53:58;-0.60;99.90
11089;DHT22;5598;48.648;8.908;2022-12-18T13:56:27;-0.50;99.90
11089;DHT22;5598;48.648;8.908;2022-12-18T13:59:19;-0.50;99.90
11089;DHT22;5598;48.648;8.908;2022-12-18T14:01:50;-0.40;99.90
11089;DHT22;5598;48.648;8.908;2022-12-18T14:04:21;-0.60;99.90
11089;DHT22;5598;48.648;8.908;2022-12-18T14:06:50;-0.80;99.90
11089;DHT22;5598;48.648;8.908;2022-12-18T14:09:20;-0.80;99.90
11089;DHT22;5598;48.648;8.908;2022-12-18T14:11:48;-0.80;99.90
11089;DHT22;5598;48.648;8.908;2022-12-18T14:14:16;-0.80;99.90
11089;DHT22;5598;48.648;8.908;2022-12-18T14:16:44;-0.80;99.90
11089;DHT22;5598;48.648;8.908;2022-12-18T14:19:14;-0.90;99.90
11089;DHT22;5598;48.648;8.908;2022-12-18T14:21:46;-0.90;99.90
11089;DHT22;5598;48.648;8.908;2022-12-18T14:24:14;-0.90;99.90
11089;DHT22;5598;48.648;8.908;2022-12-18T14:26:42;-0.90;99.90
11089;DHT22;5598;48.648;8.908;2022-12-18T14:29:21;-1.10;99.90
11089;DHT22;5598;48.648;8.908;2022-12-18T14:32:07;-1.90;99.90
11089;DHT22;5598;48.648;8.908;2022-12-18T14:34:35;-2.50;99.90
11089;DHT22;5598;48.648;8.908;2022-12-18T14:37:02;-2.60;99.90
11089;DHT22;5598;48.648;8.908;2022-12-18T14:39:29;-2.80;99.90
11089;DHT22;5598;48.648;8.908;2022-12-18T14:41:56;-3.10;99.90
11089;DHT22;5598;48.648;8.908;2022-12-18T14:44:23;-3.30;99.90
11089;DHT22;5598;48.648;8.908;2022-12-18T14:46:50;-3.30;99.90
11089;DHT22;5598;48.648;8.908;2022-12-18T14:49:24;-3.50;99.90
11089;DHT22;5598;48.648;8.908;2022-12-18T14:51:54;-3.60;99.90
11089;DHT22;5598;48.648;8.908;2022-12-18T14:54:23;-3.60;99.90
11089;DHT22;5598;48.648;8.908;2022-12-18T14:56:51;-3.90;99.90
11089;DHT22;5598;48.648;8.908;2022-12-18T14:59:24;-4.00;99.90
11089;DHT22;5598;48.648;8.908;2022-12-18T15:01:58;-4.00;99.90
11089;DHT22;5598;48.648;8.908;2022-12-18T15:04:28;-4.10;99.90
11089;DHT22;5598;48.648;8.908;2022-12-18T15:07:12;-4.20;99.90
11089;DHT22;5598;48.648;8.908;2022-12-18T15:09:41;-4.30;99.90
11089;DHT22;5598;48.648;8.908;2022-12-18T15:12:25;-4.40;99.90
11089;DHT22;5598;48.648;8.908;2022-12-18T15:14:52;-4.40;99.90
11089;DHT22;5598;48.648;8.908;2022-12-18T15:17:22;-4.40;99.90
11089;DHT22;5598;48.648;8.908;2022-12-18T15:19:52;-4.40;99.90
11089;DHT22;5598;48.648;8.908;2022-12-18T15:22:24;-4.30;99.90
11089;DHT22;5598;48.648;8.908;2022-12-18T15:24:52;-4.30;99.90
11089;DHT22;5598;48.648;8.908;2022-12-18T15:27:29;-4.40;99.90
11089;DHT22;5598;48.648;8.908;2022-12-18T15:30:00;-4.30;99.90
11089;DHT22;5598;48.648;8.908;2022-12-18T15:32:28;-4.20;99.90
11089;DHT22;5598;48.648;8.908;2022-12-18T15:35:03;-4.20;99.90
11089;DHT22;5598;48.648;8.908;2022-12-18T15:37:31;-4.40;99.90
11089;DHT22;5598;48.648;8.908;2022-12-18T15:39:58;-4.70;99.90
11089;DHT22;5598;48.648;8.908;2022-12-18T15:42:25;-4.80;99.90
11089;DHT22;5598;48.648;8.908;2022-12-18T15:45:11;-4.90;99.90
11089;DHT22;5598;48.648;8.908;2022-12-18T15:47:39;-4.90;99.90
11089;DHT22;5598;48.648;8.908;2022-12-18T15:50:08;-4.90;99.90
11089;DHT22;5598;48.648;8.908;2022-12-18T15:52:39;-5.00;99.90
11089;DHT22;5598;48.648;8.908;2022-12-18T15:55:10;-5.10;99.90
11089;DHT22;5598;48.648;8.908;2022-12-18T15:57:55;-5.10;99.90
11089;DHT22;5598;48.648;8.908;2022-12-18T16:00:22;-5.20;99.90
11089;DHT22;5598;48.648;8.908;2022-12-18T16:02:49;-5.20;99.90
11089;DHT22;5598;48.648;8.908;2022-12-18T16:05:17;-5.30;99.90
11089;DHT22;5598;48.648;8.908;2022-12-18T16:07:46;-5.30;99.90